16°C Temp
14°C Dewpoint
% Humidity
Temperature
16 KM/H
10 MPH
9 KTS
210°
South South
West

Wind Speed
Light Rain
Showers
Pressure 1005.92 (hPa) - 29.7 (in)
Visibility 6.2 (mi) - 10.0 (km)

Current Conditions
EHDL
Location 30(km)
Metar :EHDL 151125Z AUTO 21009KT 150V260 9999 -RA FEW009 BKN022 BKN026 16/14 Q1006 RERA REDZ WHT
Tue 15th October 13:25 pm

Airport
  Metar Aviation API Data Provided by https://www.checkwx.com/ PHP scripts by weather34.com ©2019